Time;durP1;ratioP1;P1;durP2;ratioP2;P2;SDS_P1;SDS_P2;PMS_P1;PMS_P2;Temp;Humidity;BMP_temperature;BMP_pressure;BME280_temperature;BME280_humidity;BME280_pressure;Samples;Min_cycle;Max_cycle;Signal;HPM_P1;HPM_P2
2024/01/27 00:01:40;;;;;;;;;;;;;;;3.79;100.00;102052.34;5040090;28;19929;-79
2024/01/27 00:04:13;;;;;;;;;;;;;;;3.81;100.00;102052.16;5021776;28;19925;-78
2024/01/27 00:06:46;;;;;;;;;;;;;;;3.83;100.00;102042.84;5027821;28;19925;-79
2024/01/27 00:09:19;;;;;;;;;;;;;;;3.92;100.00;102043.50;5031333;28;19924;-79
2024/01/27 00:11:49;;;;;;;;;;;;;;;4.01;100.00;102047.66;5037831;28;20489;-79
2024/01/27 00:14:22;;;;;;;;;;;;;;;3.94;100.00;102049.53;5019809;28;19929;-79
2024/01/27 00:16:55;;;;;;;;;;;;;;;3.91;100.00;102053.44;5035917;28;19932;-79
2024/01/27 00:19:25;;;;;;;;;;;;;;;3.87;100.00;102057.56;5038490;28;19928;-80
2024/01/27 00:21:59;;;;;;;;;;;;;;;3.89;100.00;102071.69;5037615;28;19937;-80
2024/01/27 00:24:32;;;;;;;;;;;;;;;3.95;100.00;102056.56;5036892;28;19920;-80
2024/01/27 00:27:06;;;;;;;;;;;;;;;3.98;100.00;102066.09;5038647;28;19932;-79
2024/01/27 00:29:34;;;;;;;;;;;;;;;3.99;100.00;102063.22;5054245;28;19947;-80
2024/01/27 00:32:07;;;;;;;;;;;;;;;3.97;100.00;102067.97;5037117;28;20313;-80
2024/01/27 00:34:39;;;;;;;;;;;;;;;3.98;100.00;102071.47;5035837;28;20321;-80
2024/01/27 00:37:13;;;;;;;;;;;;;;;4.02;100.00;102060.13;5032171;28;20728;-79
2024/01/27 00:39:46;;;;;;;;;;;;;;;4.01;100.00;102060.31;5036377;28;19927;-80
2024/01/27 00:42:23;;;;;;;;;;;;;;;3.98;100.00;102066.94;5038743;28;19928;-80
2024/01/27 00:44:59;;;;;;;;;;;;;;;3.97;100.00;102072.53;5016515;28;20298;-80
2024/01/27 00:47:32;;;;;;;;;;;;;;;3.94;100.00;102073.75;5027123;28;19939;-80
2024/01/27 00:50:00;;;;;;;;;;;;;;;3.94;100.00;102073.75;5041199;28;21594;-80
2024/01/27 00:52:28;;;;;;;;;;;;;;;3.95;100.00;102086.22;5018040;28;21915;-80
2024/01/27 00:55:01;;;;;;;;;;;;;;;3.95;100.00;102090.75;5034963;28;19925;-80
2024/01/27 00:57:36;;;;;;;;;;;;;;;3.93;100.00;102085.56;5038613;28;20305;-80
2024/01/27 01:00:10;;;;;;;;;;;;;;;3.94;100.00;102091.78;5035014;28;19928;-80
2024/01/27 01:02:43;;;;;;;;;;;;;;;3.93;100.00;102088.25;5041210;28;20196;-80
2024/01/27 01:05:11;;;;;;;;;;;;;;;4.04;100.00;102084.97;5039464;28;19928;-80
2024/01/27 01:07:39;;;;;;;;;;;;;;;3.98;100.00;102099.25;5040232;28;20693;-80
2024/01/27 01:10:08;;;;;;;;;;;;;;;4.00;100.00;102090.97;5030443;28;19931;-79
2024/01/27 01:12:42;;;;;;;;;;;;;;;3.96;100.00;102100.50;5041657;28;20374;-79
2024/01/27 01:15:10;;;;;;;;;;;;;;;4.03;100.00;102110.28;5042481;28;20616;-80
2024/01/27 01:17:38;;;;;;;;;;;;;;;4.01;100.00;102115.03;5039872;28;19920;-80
2024/01/27 01:20:11;;;;;;;;;;;;;;;4.01;100.00;102117.72;5039815;28;19932;-79
2024/01/27 01:22:39;;;;;;;;;;;;;;;4.05;100.00;102123.53;5026510;28;19925;-79
2024/01/27 01:25:12;;;;;;;;;;;;;;;4.01;100.00;102122.28;5044603;28;20609;-78
2024/01/27 01:27:41;;;;;;;;;;;;;;;4.04;100.00;102117.31;5040567;28;19921;-79
2024/01/27 01:30:14;;;;;;;;;;;;;;;3.99;100.00;102118.94;5037842;28;19939;-79
2024/01/27 01:32:47;;;;;;;;;;;;;;;3.96;100.00;102122.84;5027191;28;20361;-79
2024/01/27 01:35:20;;;;;;;;;;;;;;;3.90;100.00;102126.38;5041646;28;19992;-79
2024/01/27 01:37:53;;;;;;;;;;;;;;;3.84;100.00;102119.91;5040172;28;19921;-79
2024/01/27 01:40:21;;;;;;;;;;;;;;;3.85;100.00;102128.81;5057445;28;19921;-79
2024/01/27 01:42:55;;;;;;;;;;;;;;;3.79;100.00;102133.13;5039583;28;19937;-79
2024/01/27 01:45:23;;;;;;;;;;;;;;;3.81;100.00;102135.63;5032245;28;19931;-79
2024/01/27 01:47:56;;;;;;;;;;;;;;;3.83;100.00;102147.06;5042012;28;20001;-79
2024/01/27 01:50:29;;;;;;;;;;;;;;;3.85;100.00;102137.75;5036127;28;19925;-79
2024/01/27 01:53:02;;;;;;;;;;;;;;;3.83;100.00;102134.41;5037839;28;19932;-79
2024/01/27 01:55:35;;;;;;;;;;;;;;;3.76;100.00;102141.63;5041870;28;19935;-79
2024/01/27 01:58:04;;;;;;;;;;;;;;;3.77;100.00;102142.44;5040757;28;20479;-79
2024/01/27 02:00:32;;;;;;;;;;;;;;;3.68;100.00;102139.91;5042279;28;19924;-79
2024/01/27 02:03:03;;;;;;;;;;;;;;;3.62;100.00;102153.31;5046846;28;19920;-78
2024/01/27 02:05:31;;;;;;;;;;;;;;;3.63;100.00;102150.44;5041459;28;19925;-79
2024/01/27 02:08:05;;;;;;;;;;;;;;;3.64;100.00;102159.34;5042943;28;19932;-79
2024/01/27 02:10:38;;;;;;;;;;;;;;;3.63;100.00;102171.97;5026050;28;19931;-79
2024/01/27 02:13:20;;;;;;;;;;;;;;;3.67;100.00;102175.94;5060974;28;20362;-79
2024/01/27 02:15:49;;;;;;;;;;;;;;;3.67;100.00;102175.94;5039409;28;19951;-78
2024/01/27 02:18:22;;;;;;;;;;;;;;;3.84;100.00;102173.78;5040263;28;20388;-78
2024/01/27 02:20:55;;;;;;;;;;;;;;;3.80;100.00;102175.22;5044099;28;19925;-79
2024/01/27 02:23:27;;;;;;;;;;;;;;;3.84;100.00;102171.09;5043067;28;19940;-79
2024/01/27 02:25:57;;;;;;;;;;;;;;;3.89;100.00;102174.03;5040318;28;19936;-78
2024/01/27 02:28:31;;;;;;;;;;;;;;;3.87;100.00;102167.19;5039758;28;19925;-79
2024/01/27 02:31:05;;;;;;;;;;;;;;;3.89;100.00;102179.41;5023447;28;19925;-78
2024/01/27 02:33:37;;;;;;;;;;;;;;;3.89;100.00;102183.94;5043514;28;19936;-79
2024/01/27 02:36:10;;;;;;;;;;;;;;;3.78;100.00;102190.72;5036369;28;19929;-78
2024/01/27 02:38:43;;;;;;;;;;;;;;;3.80;100.00;102185.97;5033918;28;19928;-79
2024/01/27 02:41:14;;;;;;;;;;;;;;;3.89;100.00;102182.09;5042732;28;20480;-79
2024/01/27 02:43:47;;;;;;;;;;;;;;;3.88;100.00;102175.06;5019972;28;19929;-79
2024/01/27 02:46:20;;;;;;;;;;;;;;;3.74;100.00;102190.28;5015559;28;19924;-79
2024/01/27 02:48:48;;;;;;;;;;;;;;;3.66;100.00;102187.75;5032296;28;19921;-79
2024/01/27 02:51:21;;;;;;;;;;;;;;;3.64;100.00;102195.19;5035603;28;20320;-79
2024/01/27 02:53:49;;;;;;;;;;;;;;;3.59;100.00;102197.66;5025915;28;19927;-79
2024/01/27 02:56:18;;;;;;;;;;;;;;;3.58;100.00;102194.09;5048520;28;19929;-79
2024/01/27 02:58:46;;;;;;;;;;;;;;;3.63;100.00;102192.69;5016216;28;21389;-78
2024/01/27 03:01:14;;;;;;;;;;;;;;;3.45;100.00;102195.88;5023007;28;19929;-79
2024/01/27 03:03:47;;;;;;;;;;;;;;;3.44;100.00;102189.66;5039816;28;19925;-79
2024/01/27 03:06:15;;;;;;;;;;;;;;;3.45;100.00;102193.16;5043905;28;19932;-79
2024/01/27 03:08:43;;;;;;;;;;;;;;;3.35;100.00;102198.88;5036557;28;20466;-79
2024/01/27 03:11:16;;;;;;;;;;;;;;;3.35;100.00;102202.41;5037529;28;19925;-78
2024/01/27 03:13:45;;;;;;;;;;;;;;;3.29;100.00;102197.00;5040299;28;19921;-79
2024/01/27 03:16:19;;;;;;;;;;;;;;;3.34;100.00;102205.28;5039474;28;19928;-79
2024/01/27 03:18:47;;;;;;;;;;;;;;;3.32;100.00;102201.97;5035097;28;20000;-79
2024/01/27 03:21:15;;;;;;;;;;;;;;;3.27;100.00;102201.72;5043970;28;20284;-79
2024/01/27 03:23:43;;;;;;;;;;;;;;;3.37;100.00;102203.06;5043442;28;19921;-78
2024/01/27 03:26:11;;;;;;;;;;;;;;;3.41;100.00;102203.47;5026163;28;19932;-79
2024/01/27 03:28:46;;;;;;;;;;;;;;;3.38;100.00;102214.63;5033016;28;19924;-79
2024/01/27 03:31:18;;;;;;;;;;;;;;;3.38;100.00;102210.09;5038288;28;19929;-78
2024/01/27 03:33:51;;;;;;;;;;;;;;;3.52;100.00;102210.19;5042820;28;19925;-79
2024/01/27 03:36:24;;;;;;;;;;;;;;;3.56;100.00;102206.94;5039004;28;19932;-78
2024/01/27 03:38:58;;;;;;;;;;;;;;;3.59;100.00;102213.78;5014915;28;19921;-79
2024/01/27 03:41:26;;;;;;;;;;;;;;;3.66;100.00;102225.44;5039767;28;20309;-78
2024/01/27 03:44:01;;;;;;;;;;;;;;;3.69;100.00;102224.22;5031535;28;19920;-79
2024/01/27 03:46:29;;;;;;;;;;;;;;;3.76;100.00;102233.19;5020013;28;19932;-79
2024/01/27 03:48:57;;;;;;;;;;;;;;;3.83;100.00;102231.34;5041301;28;19924;-79
2024/01/27 03:51:26;;;;;;;;;;;;;;;3.91;100.00;102233.09;5037937;28;19929;-79
2024/01/27 03:53:54;;;;;;;;;;;;;;;3.93;100.00;102241.78;5055830;28;19920;-79
2024/01/27 03:56:21;;;;;;;;;;;;;;;3.96;100.00;102227.91;5040720;28;20298;-79
2024/01/27 03:58:55;;;;;;;;;;;;;;;3.97;100.00;102229.59;5038762;28;20427;-79
2024/01/27 04:01:29;;;;;;;;;;;;;;;4.00;100.00;102234.56;5028882;28;19925;-79
2024/01/27 04:03:57;;;;;;;;;;;;;;;4.03;100.00;102223.41;5039560;28;20484;-79
2024/01/27 04:06:30;;;;;;;;;;;;;;;4.02;100.00;102237.06;5052832;28;19928;-79
2024/01/27 04:08:58;;;;;;;;;;;;;;;4.00;100.00;102241.84;5019173;28;19929;-79
2024/01/27 04:11:31;;;;;;;;;;;;;;;4.08;100.00;102247.88;5038820;28;20475;-78
2024/01/27 04:14:04;;;;;;;;;;;;;;;4.02;100.00;102253.22;5041920;28;19932;-79
2024/01/27 04:16:39;;;;;;;;;;;;;;;4.01;100.00;102251.59;5044937;28;19928;-78
2024/01/27 04:19:07;;;;;;;;;;;;;;;4.01;100.00;102254.28;5044010;28;19944;-78
2024/01/27 04:21:35;;;;;;;;;;;;;;;4.00;100.00;102258.00;5041817;28;19944;-79
2024/01/27 04:24:08;;;;;;;;;;;;;;;3.95;100.00;102261.28;5035851;28;20384;-79
2024/01/27 04:26:41;;;;;;;;;;;;;;;3.96;100.00;102259.41;5049926;28;19932;-79
2024/01/27 04:29:09;;;;;;;;;;;;;;;3.98;100.00;102258.19;5027499;28;19928;-79
2024/01/27 04:31:43;;;;;;;;;;;;;;;3.95;100.00;102263.13;5035392;28;19921;-79
2024/01/27 04:34:16;;;;;;;;;;;;;;;3.95;100.00;102266.69;5040175;28;19929;-79
2024/01/27 04:36:49;;;;;;;;;;;;;;;3.95;100.00;102271.22;5038308;28;19954;-78
2024/01/27 04:39:22;;;;;;;;;;;;;;;3.94;100.00;102265.00;5041643;28;19924;-78
2024/01/27 04:41:50;;;;;;;;;;;;;;;3.89;100.00;102267.44;5033713;28;19963;-79
2024/01/27 04:44:23;;;;;;;;;;;;;;;3.94;100.00;102274.97;5035846;28;19929;-78
2024/01/27 04:46:52;;;;;;;;;;;;;;;3.93;100.00;102268.72;5033522;28;19939;-78
2024/01/27 04:49:26;;;;;;;;;;;;;;;3.95;100.00;102274.75;5037433;28;19925;-79
2024/01/27 04:51:59;;;;;;;;;;;;;;;3.95;100.00;102284.69;5033711;28;19948;-78
2024/01/27 04:54:27;;;;;;;;;;;;;;;3.97;100.00;102279.94;5039377;28;19932;-78
2024/01/27 04:57:00;;;;;;;;;;;;;;;3.92;100.00;102284.06;5033867;28;19927;-79
2024/01/27 04:59:28;;;;;;;;;;;;;;;3.92;100.00;102272.44;5041238;28;19959;-79
2024/01/27 05:02:02;;;;;;;;;;;;;;;3.94;100.00;102277.66;5021032;28;19925;-79
2024/01/27 05:04:31;;;;;;;;;;;;;;;3.92;100.00;102291.28;5021676;28;19925;-79
2024/01/27 05:06:59;;;;;;;;;;;;;;;3.94;100.00;102285.72;5037122;28;19935;-79
2024/01/27 05:09:34;;;;;;;;;;;;;;;3.99;100.00;102286.81;5038843;28;19920;-79
2024/01/27 05:12:02;;;;;;;;;;;;;;;3.95;100.00;102290.91;5032177;28;19943;-79
2024/01/27 05:14:30;;;;;;;;;;;;;;;3.95;100.00;102293.63;5038836;28;19928;-79
2024/01/27 05:16:58;;;;;;;;;;;;;;;3.92;100.00;102294.84;5038121;28;19921;-79
2024/01/27 05:19:33;;;;;;;;;;;;;;;3.92;100.00;102302.91;5037919;28;19946;-78
2024/01/27 05:22:06;;;;;;;;;;;;;;;3.93;100.00;102298.34;5048012;28;19928;-79
2024/01/27 05:24:34;;;;;;;;;;;;;;;3.95;100.00;102299.00;5036731;28;19928;-78
2024/01/27 05:27:02;;;;;;;;;;;;;;;3.95;100.00;102301.69;5028059;28;19929;-79
2024/01/27 05:29:30;;;;;;;;;;;;;;;3.93;100.00;102314.50;5016216;28;19925;-79
2024/01/27 05:32:03;;;;;;;;;;;;;;;3.94;100.00;102307.28;5054964;28;19924;-78
2024/01/27 05:34:37;;;;;;;;;;;;;;;3.93;100.00;102311.81;5037255;28;20793;-79
2024/01/27 05:37:10;;;;;;;;;;;;;;;3.95;100.00;102317.00;5037983;28;20365;-79
2024/01/27 05:39:43;;;;;;;;;;;;;;;3.93;100.00;102317.19;5053943;28;19921;-79
2024/01/27 05:42:16;;;;;;;;;;;;;;;3.91;100.00;102319.28;5038574;28;20459;-79
2024/01/27 05:44:45;;;;;;;;;;;;;;;3.90;100.00;102318.41;5040384;28;19932;-79
2024/01/27 05:47:17;;;;;;;;;;;;;;;3.85;100.00;102307.41;5035876;28;19947;-79
2024/01/27 05:49:52;;;;;;;;;;;;;;;3.85;100.00;102318.19;5036541;28;19963;-79
2024/01/27 05:52:20;;;;;;;;;;;;;;;3.85;100.00;102322.72;5039835;28;19921;-79
2024/01/27 05:54:48;;;;;;;;;;;;;;;3.82;100.00;102332.03;5025698;28;19936;-79
2024/01/27 05:57:21;;;;;;;;;;;;;;;3.79;100.00;102326.22;5036677;28;19924;-79
2024/01/27 05:59:49;;;;;;;;;;;;;;;3.69;100.00;102315.78;5039004;28;19924;-80
2024/01/27 06:02:17;;;;;;;;;;;;;;;3.72;100.00;102332.34;5019796;28;19931;-78
2024/01/27 06:04:52;;;;;;;;;;;;;;;3.70;100.00;102320.97;5034112;28;19928;-79
2024/01/27 06:07:20;;;;;;;;;;;;;;;3.66;100.00;102326.91;5053469;28;19928;-78
2024/01/27 06:09:47;;;;;;;;;;;;;;;3.61;100.00;102334.75;5034058;28;19932;-79
2024/01/27 06:12:20;;;;;;;;;;;;;;;3.67;100.00;102339.34;5022896;28;19936;-78
2024/01/27 06:14:53;;;;;;;;;;;;;;;3.57;100.00;102345.88;5035670;28;20281;-79
2024/01/27 06:17:26;;;;;;;;;;;;;;;3.52;100.00;102342.94;5046304;28;19935;-79
2024/01/27 06:20:01;;;;;;;;;;;;;;;3.52;100.00;102352.88;5056076;28;20568;-79
2024/01/27 06:22:34;;;;;;;;;;;;;;;3.50;100.00;102365.69;5024622;28;19924;-79
2024/01/27 06:25:08;;;;;;;;;;;;;;;3.49;100.00;102366.72;5044142;28;20633;-79
2024/01/27 06:27:42;;;;;;;;;;;;;;;3.46;100.00;102364.41;5040990;28;19928;-79
2024/01/27 06:30:15;;;;;;;;;;;;;;;3.38;100.00;102371.59;5026075;28;19928;-79
2024/01/27 06:32:48;;;;;;;;;;;;;;;3.33;100.00;102384.75;5034205;28;19941;-79
2024/01/27 06:35:18;;;;;;;;;;;;;;;3.27;100.00;102380.13;5039626;28;20966;-79
2024/01/27 06:37:51;;;;;;;;;;;;;;;3.33;100.00;102391.97;5025771;28;19928;-78
2024/01/27 06:40:19;;;;;;;;;;;;;;;3.34;100.00;102394.53;5022942;28;19936;-79
2024/01/27 06:42:52;;;;;;;;;;;;;;;3.33;100.00;102400.06;5044886;28;19924;-80
2024/01/27 06:45:20;;;;;;;;;;;;;;;3.33;100.00;102405.44;5038770;28;19944;-78
2024/01/27 06:47:52;;;;;;;;;;;;;;;3.37;100.00;102402.19;5040671;28;19924;-78
2024/01/27 06:50:27;;;;;;;;;;;;;;;3.33;100.00;102408.13;5040401;28;19921;-79
2024/01/27 06:52:55;;;;;;;;;;;;;;;3.34;100.00;102413.34;5035781;28;19925;-78
2024/01/27 06:55:27;;;;;;;;;;;;;;;3.30;100.00;102406.69;5023729;28;19924;-79
2024/01/27 06:58:14;;;;;;;;;;;;;;;3.34;100.00;102417.88;5020600;28;20380;-80
2024/01/27 07:00:57;;;;;;;;;;;;;;;3.31;100.00;102420.97;5040426;28;20651;-79
2024/01/27 07:03:55;;;;;;;;;;;;;;;3.33;100.00;102425.13;5040359;28;19920;-80
2024/01/27 07:06:30;;;;;;;;;;;;;;;3.38;100.00;102428.09;5038464;28;19924;-81
2024/01/27 07:09:11;;;;;;;;;;;;;;;3.33;100.00;102430.50;5021274;28;19931;-81
2024/01/27 07:12:34;;;;;;;;;;;;;;;3.40;100.00;102435.97;5036774;28;19931;-80
2024/01/27 07:15:59;;;;;;;;;;;;;;;3.43;100.00;102435.59;5031432;28;19924;-80
2024/01/27 07:18:45;;;;;;;;;;;;;;;3.43;100.00;102454.44;5041263;28;19929;-81
2024/01/27 07:21:18;;;;;;;;;;;;;;;3.53;100.00;102449.56;5037769;28;20311;-81
2024/01/27 07:23:55;;;;;;;;;;;;;;;3.46;100.00;102448.66;5035770;28;20380;-81
2024/01/27 07:26:27;;;;;;;;;;;;;;;3.49;100.00;102447.47;5041852;28;19925;-80
2024/01/27 07:29:01;;;;;;;;;;;;;;;3.49;100.00;102450.97;5037460;28;19932;-81
2024/01/27 07:31:28;;;;;;;;;;;;;;;3.54;100.00;102445.88;5037953;28;19921;-81
2024/01/27 07:33:56;;;;;;;;;;;;;;;3.52;100.00;102447.94;5036016;28;19925;-80
2024/01/27 07:36:32;;;;;;;;;;;;;;;3.54;100.00;102453.13;5023295;28;19948;-81
2024/01/27 07:39:06;;;;;;;;;;;;;;;3.61;100.00;102458.59;5038032;28;19924;-81
2024/01/27 07:41:39;;;;;;;;;;;;;;;3.56;100.00;102459.13;5028428;28;19932;-81
2024/01/27 07:44:14;;;;;;;;;;;;;;;3.54;100.00;102458.50;5040642;28;19932;-82
2024/01/27 07:46:46;;;;;;;;;;;;;;;3.53;100.00;102467.59;5058249;28;19935;-82
2024/01/27 07:49:19;;;;;;;;;;;;;;;3.50;100.00;102471.50;5039556;28;19928;-82
2024/01/27 07:51:48;;;;;;;;;;;;;;;3.51;100.00;102469.66;5026581;28;20408;-81
2024/01/27 07:54:22;;;;;;;;;;;;;;;3.58;100.00;102475.94;5020737;28;19931;-82
2024/01/27 07:56:50;;;;;;;;;;;;;;;3.57;100.00;102467.03;5038024;28;20424;-82
2024/01/27 07:59:23;;;;;;;;;;;;;;;3.52;100.00;102476.69;5040803;28;19920;-81
2024/01/27 08:01:56;;;;;;;;;;;;;;;3.51;100.00;102477.72;5018528;28;19921;-82
2024/01/27 08:04:24;;;;;;;;;;;;;;;3.46;100.00;102480.16;5033349;28;19929;-82
2024/01/27 08:06:57;;;;;;;;;;;;;;;3.50;100.00;102481.44;5029499;28;19936;-82
2024/01/27 08:09:32;;;;;;;;;;;;;;;3.48;100.00;102484.31;5027276;28;19931;-83
2024/01/27 08:12:01;;;;;;;;;;;;;;;3.52;100.00;102479.38;5040557;28;20377;-82
2024/01/27 08:14:35;;;;;;;;;;;;;;;3.46;100.00;102499.81;5039430;28;19928;-81
2024/01/27 08:17:08;;;;;;;;;;;;;;;3.45;100.00;102489.25;5036076;28;20451;-81
2024/01/27 08:19:37;;;;;;;;;;;;;;;3.42;100.00;102492.31;5037317;28;19921;-82
2024/01/27 08:22:10;;;;;;;;;;;;;;;3.48;100.00;102502.31;5041057;28;19920;-81
2024/01/27 08:24:39;;;;;;;;;;;;;;;3.44;100.00;102514.47;5055617;28;19928;-80
2024/01/27 08:27:12;;;;;;;;;;;;;;;3.44;100.00;102501.88;5040353;28;19935;-80
2024/01/27 08:29:45;;;;;;;;;;;;;;;3.55;100.00;102509.47;5025170;28;19925;-82
2024/01/27 08:32:13;;;;;;;;;;;;;;;3.51;100.00;102507.34;5024700;28;19932;-80
2024/01/27 08:34:41;;;;;;;;;;;;;;;3.45;100.00;102516.97;5039762;28;19925;-83
2024/01/27 08:37:19;;;;;;;;;;;;;;;3.42;100.00;102528.13;5040280;28;19924;-82
2024/01/27 08:39:56;;;;;;;;;;;;;;;3.49;100.00;102520.13;5041545;28;20600;-81
2024/01/27 08:42:29;;;;;;;;;;;;;;;3.41;100.00;102523.75;5035650;28;19932;-81
2024/01/27 08:45:00;;;;;;;;;;;;;;;3.45;100.00;102519.66;5025693;28;19931;-82
2024/01/27 08:47:33;;;;;;;;;;;;;;;3.47;100.00;102533.78;5054588;28;19928;-81
2024/01/27 08:50:06;;;;;;;;;;;;;;;3.51;100.00;102547.72;5034808;28;19925;-81
2024/01/27 08:52:39;;;;;;;;;;;;;;;3.64;100.00;102549.75;5016821;28;19928;-81
2024/01/27 08:55:13;;;;;;;;;;;;;;;3.62;100.00;102552.63;5052683;28;20658;-81
2024/01/27 08:57:47;;;;;;;;;;;;;;;3.61;100.00;102558.22;5037624;28;19932;-81
2024/01/27 09:00:16;;;;;;;;;;;;;;;3.66;100.00;102553.94;5037985;28;19921;-83
2024/01/27 09:02:49;;;;;;;;;;;;;;;3.60;100.00;102535.81;5036380;28;19931;-82
2024/01/27 09:05:22;;;;;;;;;;;;;;;3.75;100.00;102549.25;5035357;28;20280;-81
2024/01/27 09:07:55;;;;;;;;;;;;;;;3.66;100.00;102548.53;5035093;28;19929;-82
2024/01/27 09:10:25;;;;;;;;;;;;;;;3.62;100.00;102543.69;5057032;28;19983;-80
2024/01/27 09:12:57;;;;;;;;;;;;;;;3.61;100.00;102550.94;5037153;28;19924;-81
2024/01/27 09:15:25;;;;;;;;;;;;;;;3.64;100.00;102545.19;5018661;28;20016;-82
2024/01/27 09:17:58;;;;;;;;;;;;;;;3.66;100.00;102548.53;5018306;28;19925;-79
2024/01/27 09:20:31;;;;;;;;;;;;;;;3.68;100.00;102549.19;5026249;28;19931;-81
2024/01/27 09:23:08;;;;;;;;;;;;;;;3.66;100.00;102556.63;5037092;28;19924;-81
2024/01/27 09:25:43;;;;;;;;;;;;;;;3.83;100.00;102565.31;5034658;28;19924;-80
2024/01/27 09:28:11;;;;;;;;;;;;;;;3.80;100.00;102572.94;5039104;28;19932;-81
2024/01/27 09:30:42;;;;;;;;;;;;;;;3.77;100.00;102568.78;5033275;28;19936;-81
2024/01/27 09:33:10;;;;;;;;;;;;;;;3.82;100.00;102555.56;5035197;28;20465;-81
2024/01/27 09:35:38;;;;;;;;;;;;;;;3.90;100.00;102560.84;5039517;28;19925;-82
2024/01/27 09:38:12;;;;;;;;;;;;;;;3.78;100.00;102559.66;5022368;28;19947;-81
2024/01/27 09:40:40;;;;;;;;;;;;;;;3.75;100.00;102555.47;5035860;28;20356;-82
2024/01/27 09:43:13;;;;;;;;;;;;;;;3.66;100.00;102550.38;4982815;28;19928;-80
2024/01/27 09:45:41;;;;;;;;;;;;;;;3.84;100.00;102568.84;5028812;28;19928;-80
2024/01/27 09:48:15;;;;;;;;;;;;;;;3.85;100.00;102563.28;5018968;28;19991;-79
2024/01/27 09:50:50;;;;;;;;;;;;;;;3.86;100.00;102564.94;5017616;28;19928;-81
2024/01/27 09:53:18;;;;;;;;;;;;;;;3.83;100.00;102569.88;5032707;28;19928;-80
2024/01/27 09:55:51;;;;;;;;;;;;;;;3.79;100.00;102572.09;5038712;28;19929;-81
2024/01/27 09:58:21;;;;;;;;;;;;;;;3.72;100.00;102571.19;5045835;28;19921;-81
2024/01/27 10:00:55;;;;;;;;;;;;;;;3.77;100.00;102571.47;5048129;28;19925;-80
2024/01/27 10:03:28;;;;;;;;;;;;;;;3.80;100.00;102573.78;5029568;28;20405;-80
2024/01/27 10:05:57;;;;;;;;;;;;;;;3.73;100.00;102572.88;5041451;28;20556;-81
2024/01/27 10:08:30;;;;;;;;;;;;;;;3.77;100.00;102590.31;5041323;28;19927;-81
2024/01/27 10:10:58;;;;;;;;;;;;;;;3.79;100.00;102582.88;5029503;28;19928;-80
2024/01/27 10:13:32;;;;;;;;;;;;;;;3.77;100.00;102581.38;5046072;28;19935;-81
2024/01/27 10:16:01;;;;;;;;;;;;;;;3.79;100.00;102582.88;5041291;28;20263;-81
2024/01/27 10:18:35;;;;;;;;;;;;;;;3.83;100.00;102592.25;5042016;28;19932;-81
2024/01/27 10:21:15;;;;;;;;;;;;;;;3.82;100.00;102593.28;5043486;28;19987;-81
2024/01/27 10:23:48;;;;;;;;;;;;;;;3.83;100.00;102584.19;5024470;28;19925;-81
2024/01/27 10:26:21;;;;;;;;;;;;;;;3.84;100.00;102583.16;5043372;28;19932;-80
2024/01/27 10:28:54;;;;;;;;;;;;;;;3.90;100.00;102589.66;5048061;28;19920;-81
2024/01/27 10:31:28;;;;;;;;;;;;;;;3.87;100.00;102588.16;5043958;28;20316;-81
2024/01/27 10:34:03;;;;;;;;;;;;;;;4.00;100.00;102600.13;5046964;28;19944;-81
2024/01/27 10:36:40;;;;;;;;;;;;;;;4.01;100.00;102604.50;5045258;28;19921;-80
2024/01/27 10:39:17;;;;;;;;;;;;;;;4.13;100.00;102621.00;5043070;28;19921;-81
2024/01/27 10:41:50;;;;;;;;;;;;;;;4.16;100.00;102616.06;5043601;28;19925;-81
2024/01/27 10:44:25;;;;;;;;;;;;;;;4.15;100.00;102616.28;5039891;28;19925;-81
2024/01/27 10:47:02;;;;;;;;;;;;;;;4.13;100.00;102624.56;5033771;28;19931;-81
2024/01/27 10:49:38;;;;;;;;;;;;;;;4.14;100.00;102625.38;5042615;28;20385;-81
2024/01/27 10:52:12;;;;;;;;;;;;;;;4.18;100.00;102624.78;5043872;28;19931;-81
2024/01/27 10:54:46;;;;;;;;;;;;;;;4.23;100.00;102614.28;5040409;28;19920;-81
2024/01/27 10:57:19;;;;;;;;;;;;;;;4.29;100.00;102620.78;5038720;28;19940;-81
2024/01/27 10:59:54;;;;;;;;;;;;;;;4.32;100.00;102604.22;5049083;28;19935;-81
2024/01/27 11:02:22;;;;;;;;;;;;;;;4.36;100.00;102602.81;5025488;28;19924;-80
2024/01/27 11:04:55;;;;;;;;;;;;;;;4.39;100.00;102598.91;5042306;28;19925;-81
2024/01/27 11:07:31;;;;;;;;;;;;;;;4.46;100.00;102593.59;5042422;28;19931;-81
2024/01/27 11:10:04;;;;;;;;;;;;;;;4.46;100.00;102598.97;5042659;28;19935;-81
2024/01/27 11:12:37;;;;;;;;;;;;;;;4.42;100.00;102596.69;5046409;28;20365;-81
2024/01/27 11:15:12;;;;;;;;;;;;;;;4.44;100.00;102593.78;5036009;28;19924;-81
2024/01/27 11:17:46;;;;;;;;;;;;;;;4.49;100.00;102595.91;5041559;28;20575;-81
2024/01/27 11:20:16;;;;;;;;;;;;;;;4.54;100.00;102599.72;5037018;28;19929;-82
2024/01/27 11:22:49;;;;;;;;;;;;;;;4.57;100.00;102585.84;5040930;28;20732;-82
2024/01/27 11:25:22;;;;;;;;;;;;;;;4.58;100.00;102586.66;5038736;28;19932;-82
2024/01/27 11:27:51;;;;;;;;;;;;;;;4.57;100.00;102577.75;5045354;28;19925;-82
2024/01/27 11:30:28;;;;;;;;;;;;;;;4.62;100.00;102587.94;5039261;28;19924;-83
2024/01/27 11:33:02;;;;;;;;;;;;;;;4.80;100.00;102573.19;5040606;28;19925;-83
2024/01/27 11:35:35;;;;;;;;;;;;;;;4.68;100.00;102584.50;5039944;28;19932;-83
2024/01/27 11:38:02;;;;;;;;;;;;;;;4.74;100.00;102596.38;5024342;28;19940;-81
2024/01/27 11:40:30;;;;;;;;;;;;;;;4.73;100.00;102602.78;5040974;28;19921;-82
2024/01/27 11:43:03;;;;;;;;;;;;;;;4.80;100.00;102595.56;5036122;28;19928;-81
2024/01/27 11:45:38;;;;;;;;;;;;;;;4.80;100.00;102592.06;5020385;28;20052;-82
2024/01/27 11:48:07;;;;;;;;;;;;;;;4.81;100.00;102604.53;5036566;28;19921;-81
2024/01/27 11:50:34;;;;;;;;;;;;;;;4.88;100.00;102608.94;5039174;28;19921;-82
2024/01/27 11:53:09;;;;;;;;;;;;;;;4.98;100.00;102607.78;5044890;28;19929;-83
2024/01/27 11:55:42;;;;;;;;;;;;;;;5.03;100.00;102610.72;5018113;28;19932;-82
2024/01/27 11:58:15;;;;;;;;;;;;;;;5.05;100.00;102614.88;5052357;28;19925;-84
2024/01/27 12:00:44;;;;;;;;;;;;;;;5.09;100.00;102608.06;5036614;28;20261;-81
2024/01/27 12:03:12;;;;;;;;;;;;;;;5.13;100.00;102616.63;4996382;28;19933;-82
2024/01/27 12:05:41;;;;;;;;;;;;;;;5.15;100.00;102614.56;5038412;28;19929;-82
2024/01/27 12:08:14;;;;;;;;;;;;;;;5.29;100.00;102612.81;5033962;28;19929;-84
2024/01/27 12:10:41;;;;;;;;;;;;;;;5.24;100.00;102618.78;5021902;28;19936;-83
2024/01/27 12:13:14;;;;;;;;;;;;;;;5.32;100.00;102620.50;4998856;28;20607;-82
2024/01/27 12:15:45;;;;;;;;;;;;;;;5.31;100.00;102618.00;5012872;28;19929;-81
2024/01/27 12:18:18;;;;;;;;;;;;;;;5.33;100.00;102622.19;5000774;28;19936;-84
2024/01/27 12:20:55;;;;;;;;;;;;;;;5.39;100.00;102628.66;5019490;28;19936;-84
2024/01/27 12:23:23;;;;;;;;;;;;;;;5.32;100.00;102627.75;5010341;28;19936;-84
2024/01/27 12:25:53;;;;;;;;;;;;;;;5.37;100.00;102628.84;5021610;28;20314;-81
2024/01/27 12:28:27;;;;;;;;;;;;;;;5.32;100.00;102627.75;5017273;28;19936;-83
2024/01/27 12:30:57;;;;;;;;;;;;;;;5.28;100.00;102644.34;5037358;28;19935;-82
2024/01/27 12:33:25;;;;;;;;;;;;;;;5.35;100.00;102639.00;5006035;28;19936;-83
2024/01/27 12:35:54;;;;;;;;;;;;;;;5.34;100.00;102633.78;5015859;28;19928;-84
2024/01/27 12:38:22;;;;;;;;;;;;;;;5.36;100.00;102637.97;4996031;28;19925;-83
2024/01/27 12:40:50;;;;;;;;;;;;;;;5.40;100.00;102639.25;5020116;28;19924;-81
2024/01/27 12:43:23;;;;;;;;;;;;;;;5.40;100.00;102627.59;5013569;28;19928;-85
2024/01/27 12:45:51;;;;;;;;;;;;;;;5.41;100.00;102634.66;5013765;28;19940;-84
2024/01/27 12:48:21;;;;;;;;;;;;;;;5.35;100.00;102635.47;5014946;28;20401;-84
2024/01/27 12:50:54;;;;;;;;;;;;;;;5.39;100.00;102625.94;5015473;28;19928;-81
2024/01/27 12:53:27;;;;;;;;;;;;;;;5.43;100.00;102627.22;5017390;28;19936;-81
2024/01/27 12:56:00;;;;;;;;;;;;;;;5.38;100.00;102630.50;5002379;28;19929;-82
2024/01/27 12:58:28;;;;;;;;;;;;;;;5.42;100.00;102631.78;4999196;28;19928;-83
2024/01/27 13:01:01;;;;;;;;;;;;;;;5.46;100.00;102626.81;5018382;28;19936;-83